createdAt,value
2018-09-11T00:01:14.632Z,4.50
2018-09-11T00:03:43.478Z,4.80
2018-09-11T00:06:12.601Z,4.67
2018-09-11T00:08:41.463Z,5.07
2018-09-11T00:11:10.330Z,4.60
2018-09-11T00:13:39.468Z,4.03
2018-09-11T00:16:08.339Z,4.20
2018-09-11T00:18:37.151Z,4.60
2018-09-11T00:21:06.496Z,5.43
2018-09-11T00:23:35.345Z,5.03
2018-09-11T00:26:19.427Z,5.07
2018-09-11T00:28:48.638Z,4.23
2018-09-11T00:31:21.025Z,4.33
2018-09-11T00:33:49.971Z,4.93
2018-09-11T00:36:19.159Z,4.20
2018-09-11T00:38:48.010Z,4.67
2018-09-11T00:41:16.824Z,4.03
2018-09-11T00:43:50.917Z,4.37
2018-09-11T00:46:19.750Z,4.40
2018-09-11T00:48:48.572Z,4.40
2018-09-11T00:51:17.447Z,4.30
2018-09-11T00:53:49.502Z,4.50
2018-09-11T00:56:19.238Z,4.67
2018-09-11T00:58:51.626Z,4.83
2018-09-11T01:01:20.492Z,4.30
2018-09-11T01:03:49.965Z,3.73
2018-09-11T01:06:22.120Z,3.80
2018-09-11T01:08:51.113Z,2.97
2018-09-11T01:11:20.218Z,3.70
2018-09-11T01:13:49.097Z,4.10
2018-09-11T01:16:17.992Z,3.50
2018-09-11T01:18:50.231Z,3.87
2018-09-11T01:21:19.089Z,3.87
2018-09-11T01:23:48.006Z,3.30
2018-09-11T01:26:17.805Z,3.60
2018-09-11T01:28:46.648Z,3.20
2018-09-11T01:31:15.501Z,3.87
2018-09-11T01:33:46.661Z,3.27
2018-09-11T01:36:15.535Z,3.80
2018-09-11T01:38:44.372Z,3.30
2018-09-11T01:41:13.567Z,3.83
2018-09-11T01:43:42.416Z,3.17
2018-09-11T01:46:12.149Z,3.07
2018-09-11T01:48:41.261Z,3.47
2018-09-11T01:51:11.819Z,3.10
2018-09-11T01:53:40.681Z,3.20
2018-09-11T01:56:10.721Z,3.40
2018-09-11T01:58:39.573Z,3.10
2018-09-11T02:01:08.450Z,3.77
2018-09-11T02:03:37.564Z,3.17
2018-09-11T02:06:06.409Z,3.70
2018-09-11T02:08:35.361Z,3.93
2018-09-11T02:11:04.696Z,4.30
2018-09-11T02:13:33.539Z,4.10
2018-09-11T02:16:04.172Z,3.93
2018-09-11T02:18:33.448Z,4.20
2018-09-11T02:21:02.420Z,3.80
2018-09-11T02:23:31.253Z,4.23
2018-09-11T02:26:00.689Z,4.30
2018-09-11T02:31:09.882Z,4.50
2018-09-11T02:33:38.874Z,5.03
2018-09-11T02:36:07.911Z,4.03
2018-09-11T02:38:38.323Z,3.90
2018-09-11T02:41:07.338Z,4.20
2018-09-11T02:43:36.514Z,4.50
2018-09-11T02:46:07.232Z,3.93
2018-09-11T02:48:36.571Z,3.77
2018-09-11T02:51:05.504Z,4.53
2018-09-11T02:53:34.547Z,4.50
2018-09-11T02:56:04.718Z,4.67
2018-09-11T02:58:34.417Z,5.40
2018-09-11T03:01:03.569Z,4.80
2018-09-11T03:03:33.425Z,4.70
2018-09-11T03:06:03.656Z,4.70
2018-09-11T03:08:32.731Z,5.00
2018-09-11T03:11:10.389Z,4.57
2018-09-11T03:13:39.716Z,5.17
2018-09-11T03:16:08.805Z,4.60
2018-09-11T03:18:38.764Z,5.10
2018-09-11T03:21:08.050Z,4.70
2018-09-11T03:23:40.167Z,3.67
2018-09-11T03:26:09.178Z,4.27
2018-09-11T03:28:45.064Z,4.00
2018-09-11T03:31:14.013Z,4.37
2018-09-11T03:33:49.677Z,4.30
2018-09-11T03:36:24.271Z,4.40
2018-09-11T03:38:53.219Z,4.27
2018-09-11T03:41:22.214Z,3.90
2018-09-11T03:44:06.049Z,4.47
2018-09-11T03:46:35.133Z,4.50
2018-09-11T03:49:04.532Z,4.50
2018-09-11T03:51:33.546Z,4.13
2018-09-11T03:54:05.058Z,4.20
2018-09-11T03:56:33.999Z,3.80
2018-09-11T03:59:03.074Z,4.10
2018-09-11T04:01:32.232Z,4.07
2018-09-11T04:04:02.303Z,3.93
2018-09-11T04:06:31.270Z,4.73
2018-09-11T04:09:00.211Z,3.90
2018-09-11T04:11:29.704Z,4.17
2018-09-11T04:13:58.689Z,4.10
2018-09-11T04:19:08.119Z,3.50
2018-09-11T04:21:42.473Z,3.97
2018-09-11T04:24:11.444Z,4.60
2018-09-11T04:26:43.034Z,4.23
2018-09-11T04:29:15.060Z,11.70
2018-09-11T04:31:44.240Z,12.20
2018-09-11T04:34:13.668Z,4.53
2018-09-11T04:36:48.681Z,3.97
2018-09-11T04:39:17.829Z,3.77
2018-09-11T04:41:50.833Z,3.97
2018-09-11T04:44:19.796Z,3.73
2018-09-11T04:46:54.554Z,4.43
2018-09-11T04:49:23.641Z,4.50
2018-09-11T04:51:52.665Z,4.30
2018-09-11T04:54:24.126Z,4.60
2018-09-11T04:56:53.174Z,5.23
2018-09-11T04:59:22.261Z,4.70
2018-09-11T05:01:51.533Z,4.50
2018-09-11T05:04:25.420Z,4.57
2018-09-11T05:06:54.426Z,5.00
2018-09-11T05:09:24.910Z,4.40
2018-09-11T05:11:57.678Z,5.70
2018-09-11T05:14:26.887Z,4.57
2018-09-11T05:16:56.452Z,4.70
2018-09-11T05:19:25.590Z,5.07
2018-09-11T05:21:58.507Z,6.03
2018-09-11T05:24:27.550Z,5.50
2018-09-11T05:26:56.740Z,5.10
2018-09-11T05:29:26.293Z,4.57
2018-09-11T05:31:55.529Z,6.07
2018-09-11T05:34:24.630Z,6.93
2018-09-11T05:36:53.972Z,7.50
2018-09-11T05:39:23.197Z,8.57
2018-09-11T05:41:52.435Z,7.87
2018-09-11T05:44:22.013Z,8.73
2018-09-11T05:46:51.082Z,25.10
2018-09-11T05:49:20.257Z,32.10
2018-09-11T05:51:55.560Z,9.20
2018-09-11T05:54:24.836Z,7.70
2018-09-11T05:56:54.059Z,7.87
2018-09-11T05:59:23.600Z,6.90
2018-09-11T06:01:52.994Z,6.37
2018-09-11T06:04:22.029Z,6.97
2018-09-11T06:06:56.465Z,6.10
2018-09-11T06:09:25.693Z,6.13
2018-09-11T06:11:54.797Z,6.77
2018-09-11T06:14:24.232Z,8.00
2018-09-11T06:16:53.312Z,7.40
2018-09-11T06:19:25.981Z,6.53
2018-09-11T06:21:55.407Z,6.37
2018-09-11T06:24:24.658Z,6.60
2018-09-11T06:26:53.679Z,6.10
2018-09-11T06:29:24.672Z,6.07
2018-09-11T06:31:53.897Z,6.23
2018-09-11T06:34:23.133Z,5.90
2018-09-11T06:36:52.462Z,5.67
2018-09-11T06:39:21.780Z,5.90
2018-09-11T06:41:50.825Z,5.93
2018-09-11T06:44:20.755Z,6.40
2018-09-11T06:46:49.879Z,5.40
2018-09-11T06:49:23.677Z,6.00
2018-09-11T06:51:53.252Z,5.07
2018-09-11T06:54:22.389Z,5.60
2018-09-11T06:56:54.960Z,4.67
2018-09-11T06:59:25.357Z,5.30
2018-09-11T07:01:54.461Z,4.90
2018-09-11T07:04:27.324Z,4.80
2018-09-11T07:06:56.799Z,5.20
2018-09-11T07:09:25.950Z,5.10
2018-09-11T07:11:55.046Z,4.60
2018-09-11T07:14:24.489Z,5.30
2018-09-11T07:16:53.750Z,5.53
2018-09-11T07:19:22.811Z,5.50
2018-09-11T07:21:53.100Z,4.50
2018-09-11T07:24:22.465Z,5.30
2018-09-11T07:26:51.775Z,4.67
2018-09-11T07:32:14.906Z,5.67
2018-09-11T07:34:43.997Z,6.23
2018-09-11T07:37:16.918Z,4.97
2018-09-11T07:39:46.179Z,6.03
2018-09-11T07:42:16.919Z,8.83
2018-09-11T07:44:49.410Z,8.40
2018-09-11T07:47:22.514Z,7.40
2018-09-11T07:49:51.635Z,7.17
2018-09-11T07:52:26.940Z,7.33
2018-09-11T07:54:56.393Z,7.87
2018-09-11T07:57:30.661Z,8.80
2018-09-11T07:59:59.838Z,8.30
2018-09-11T08:02:28.992Z,8.80
2018-09-11T08:04:59.165Z,7.80
2018-09-11T08:07:29.623Z,9.07
2018-09-11T08:09:58.803Z,6.90
2018-09-11T08:12:28.037Z,4.80
2018-09-11T08:14:57.467Z,6.67
2018-09-11T08:17:26.600Z,9.03
2018-09-11T08:20:06.175Z,10.00
2018-09-11T08:22:35.602Z,9.50
2018-09-11T08:25:04.929Z,10.73
2018-09-11T08:27:33.916Z,10.17
2018-09-11T08:30:10.139Z,6.80
2018-09-11T08:32:39.380Z,7.57
2018-09-11T08:35:08.491Z,9.30
2018-09-11T08:37:39.589Z,10.23
2018-09-11T08:40:08.690Z,7.80
2018-09-11T08:42:44.426Z,3.77
2018-09-11T08:45:13.540Z,2.50
2018-09-11T08:47:43.229Z,2.90
2018-09-11T08:50:12.287Z,2.83
2018-09-11T08:52:41.652Z,2.60
2018-09-11T08:55:11.044Z,3.27
2018-09-11T08:57:40.304Z,2.87
2018-09-11T09:00:10.158Z,3.50
2018-09-11T09:02:39.373Z,3.63
2018-09-11T09:05:14.498Z,3.70
2018-09-11T09:07:44.143Z,3.47
2018-09-11T09:10:13.355Z,3.57
2018-09-11T09:12:42.421Z,3.60
2018-09-11T09:15:11.934Z,2.80
2018-09-11T09:17:41.054Z,2.83
2018-09-11T09:20:10.337Z,2.83
2018-09-11T09:22:39.855Z,2.63
2018-09-11T09:25:09.037Z,2.40
2018-09-11T09:27:41.596Z,2.50
2018-09-11T09:30:11.147Z,2.57
2018-09-11T09:32:40.467Z,2.23
2018-09-11T09:35:09.660Z,1.87
2018-09-11T09:37:39.142Z,2.30
2018-09-11T09:40:08.234Z,2.73
2018-09-11T09:42:43.461Z,2.10
2018-09-11T09:45:12.529Z,2.17
2018-09-11T09:47:42.574Z,2.27
2018-09-11T09:50:12.004Z,2.50
2018-09-11T09:52:41.037Z,2.40
2018-09-11T09:55:10.105Z,1.93
2018-09-11T09:57:46.205Z,2.20
2018-09-11T10:00:26.148Z,1.83
2018-09-11T10:02:55.288Z,1.80
2018-09-11T10:05:30.182Z,3.40
2018-09-11T10:07:59.356Z,2.20
2018-09-11T10:10:28.430Z,2.17
2018-09-11T10:12:59.590Z,2.00
2018-09-11T10:15:28.768Z,2.10
2018-09-11T10:17:57.826Z,1.93
2018-09-11T10:20:27.268Z,2.60
2018-09-11T10:23:00.504Z,1.97
2018-09-11T10:25:31.365Z,2.10
2018-09-11T10:28:01.044Z,2.30
2018-09-11T10:30:30.189Z,1.83
2018-09-11T10:32:59.451Z,2.27
2018-09-11T10:35:29.608Z,1.77
2018-09-11T10:37:58.734Z,2.07
2018-09-11T10:40:28.667Z,1.60
2018-09-11T10:42:58.079Z,1.70
2018-09-11T10:45:27.246Z,2.03
2018-09-11T10:47:56.422Z,1.90
2018-09-11T10:52:59.627Z,2.17
2018-09-11T10:55:28.833Z,1.53
2018-09-11T10:57:57.968Z,2.23
2018-09-11T11:00:27.193Z,1.63
2018-09-11T11:02:56.219Z,1.57
2018-09-11T11:05:28.309Z,1.73
2018-09-11T11:07:57.708Z,2.20
2018-09-11T11:10:26.935Z,1.97
2018-09-11T11:12:58.237Z,1.90
2018-09-11T11:15:27.718Z,1.70
2018-09-11T11:18:04.508Z,2.13
2018-09-11T11:20:34.146Z,1.63
2018-09-11T11:23:14.146Z,2.13
2018-09-11T11:25:44.039Z,1.97
2018-09-11T11:28:17.486Z,2.30
2018-09-11T11:30:46.640Z,1.67
2018-09-11T11:33:16.867Z,2.00
2018-09-11T11:35:46.079Z,2.30
2018-09-11T11:38:16.571Z,1.60
2018-09-11T11:40:54.717Z,1.80
2018-09-11T11:43:24.149Z,1.40
2018-09-11T11:45:53.607Z,1.97
2018-09-11T11:48:22.813Z,2.23
2018-09-11T11:50:55.444Z,1.93
2018-09-11T11:53:24.616Z,2.00
2018-09-11T11:55:53.732Z,2.13
2018-09-11T11:58:23.129Z,1.83
2018-09-11T12:00:52.370Z,1.57
2018-09-11T12:03:30.538Z,1.87
2018-09-11T12:06:00.072Z,1.83
2018-09-11T12:08:29.289Z,1.93
2018-09-11T12:10:58.273Z,1.90
2018-09-11T12:13:27.614Z,1.83
2018-09-11T12:15:56.675Z,2.87
2018-09-11T12:18:26.010Z,2.93
2018-09-11T12:20:55.379Z,1.70
2018-09-11T12:23:24.522Z,1.90
2018-09-11T12:25:53.616Z,1.60
2018-09-11T12:28:24.084Z,2.00
2018-09-11T12:30:53.439Z,1.80
2018-09-11T12:33:22.655Z,1.93
2018-09-11T12:35:53.832Z,1.70
2018-09-11T12:38:23.041Z,1.90
2018-09-11T12:40:52.322Z,2.00
2018-09-11T12:43:26.940Z,2.13
2018-09-11T12:45:56.315Z,1.83
2018-09-11T12:48:27.315Z,1.90
2018-09-11T12:50:56.751Z,2.00
2018-09-11T12:53:31.481Z,1.97
2018-09-11T12:56:00.666Z,2.13
2018-09-11T12:58:30.270Z,2.47
2018-09-11T13:00:59.379Z,1.77
2018-09-11T13:03:28.522Z,1.90
2018-09-11T13:06:04.071Z,1.80
2018-09-11T13:08:33.294Z,1.97
2018-09-11T13:11:04.021Z,1.87
2018-09-11T13:13:33.115Z,2.23
2018-09-11T13:16:02.814Z,1.87
2018-09-11T13:18:32.061Z,2.23
2018-09-11T13:21:01.354Z,2.10
2018-09-11T13:23:31.511Z,2.10
2018-09-11T13:26:00.728Z,1.70
2018-09-11T13:28:29.871Z,2.37
2018-09-11T13:31:00.323Z,2.37
2018-09-11T13:33:30.492Z,1.60
2018-09-11T13:36:10.352Z,1.87
2018-09-11T13:38:39.776Z,2.20
2018-09-11T13:41:10.107Z,2.30
2018-09-11T13:43:39.222Z,2.07
2018-09-11T13:46:09.556Z,1.93
2018-09-11T13:48:38.656Z,1.83
2018-09-11T13:51:13.165Z,2.30
2018-09-11T13:53:42.401Z,1.90
2018-09-11T13:56:11.717Z,2.37
2018-09-11T13:58:41.135Z,1.93
2018-09-11T14:01:10.288Z,1.77
2018-09-11T14:03:44.225Z,2.17
2018-09-11T14:06:15.250Z,2.13
2018-09-11T14:08:55.434Z,2.00
2018-09-11T14:11:27.648Z,2.30
2018-09-11T14:13:56.694Z,2.37
2018-09-11T14:16:25.777Z,2.47
2018-09-11T14:18:57.171Z,2.50
2018-09-11T14:21:26.386Z,2.10
2018-09-11T14:23:55.791Z,2.00
2018-09-11T14:26:25.134Z,2.60
2018-09-11T14:28:54.414Z,1.80
2018-09-11T14:33:57.701Z,2.40
2018-09-11T14:36:26.947Z,2.27
2018-09-11T14:38:56.389Z,2.23
2018-09-11T14:41:25.543Z,2.33
2018-09-11T14:43:55.506Z,2.30
2018-09-11T14:46:24.694Z,2.10
2018-09-11T14:48:53.737Z,2.17
2018-09-11T14:51:24.201Z,1.97
2018-09-11T14:53:53.264Z,2.00
2018-09-11T14:56:33.125Z,2.00
2018-09-11T15:04:17.541Z,2.43
2018-09-11T15:06:46.816Z,2.00
2018-09-11T15:09:17.263Z,1.97
2018-09-11T15:11:46.170Z,2.30
2018-09-11T15:14:19.639Z,2.70
2018-09-11T15:16:48.636Z,2.27
2018-09-11T15:19:17.602Z,2.20
2018-09-11T15:21:46.770Z,2.07
2018-09-11T15:24:15.740Z,2.60
2018-09-11T15:26:46.672Z,2.80
2018-09-11T15:29:15.859Z,3.07
2018-09-11T15:31:46.560Z,2.30
2018-09-11T15:34:15.493Z,2.70
2018-09-11T15:36:49.393Z,2.00
2018-09-11T15:39:19.016Z,2.20
2018-09-11T15:41:47.864Z,2.20
2018-09-11T15:44:16.713Z,2.70
2018-09-11T15:46:45.589Z,2.57
2018-09-11T15:49:15.009Z,2.70
2018-09-11T15:51:43.943Z,2.00
2018-09-11T15:54:16.228Z,2.33
2018-09-11T15:56:45.535Z,1.93
2018-09-11T15:59:20.884Z,2.27
2018-09-11T16:01:49.799Z,2.30
2018-09-11T16:04:20.445Z,2.30
2018-09-11T16:06:49.471Z,3.10
2018-09-11T16:10:21.297Z,2.47
2018-09-11T16:12:50.232Z,3.00
2018-09-11T16:15:19.172Z,2.87
2018-09-11T16:17:48.069Z,2.30
2018-09-11T16:20:17.461Z,2.87
2018-09-11T16:22:47.768Z,2.20
2018-09-11T16:25:17.882Z,2.60
2018-09-11T16:28:01.202Z,2.60
2018-09-11T16:30:30.159Z,2.60
2018-09-11T16:32:59.456Z,2.63
2018-09-11T16:35:28.676Z,2.63
2018-09-11T16:37:57.590Z,2.97
2018-09-11T16:40:26.445Z,2.30
2018-09-11T16:42:57.718Z,2.30
2018-09-11T16:45:26.853Z,2.50
2018-09-11T16:47:55.778Z,4.30
2018-09-11T16:50:24.901Z,2.70
2018-09-11T16:52:53.777Z,2.40
2018-09-11T16:55:23.506Z,3.07
2018-09-11T16:57:52.634Z,2.60
2018-09-11T17:00:21.451Z,2.33
2018-09-11T17:02:50.511Z,2.13
2018-09-11T17:05:19.719Z,2.30
2018-09-11T17:07:53.996Z,2.67
2018-09-11T17:10:23.001Z,3.00
2018-09-11T17:12:52.202Z,2.30
2018-09-11T17:15:21.106Z,2.27
2018-09-11T17:17:50.011Z,2.90
2018-09-11T17:20:24.262Z,2.80
2018-09-11T17:22:53.140Z,2.70
2018-09-11T17:25:22.024Z,2.30
2018-09-11T17:27:50.936Z,2.07
2018-09-11T17:32:58.148Z,2.93
2018-09-11T17:35:27.191Z,3.00
2018-09-11T17:40:29.808Z,3.67
2018-09-11T17:42:58.697Z,2.83
2018-09-11T17:45:31.291Z,2.90
2018-09-11T17:48:00.556Z,3.53
2018-09-11T17:50:29.522Z,37.20
2018-09-11T17:52:58.492Z,3.13
2018-09-11T17:55:28.180Z,3.10
2018-09-11T17:58:03.746Z,2.70
2018-09-11T18:00:32.706Z,3.07
2018-09-11T18:03:02.032Z,3.70
2018-09-11T18:05:55.023Z,3.60
2018-09-11T18:08:29.345Z,3.33
2018-09-11T18:10:58.831Z,3.40
2018-09-11T18:13:28.758Z,4.00
2018-09-11T18:15:57.630Z,4.47
2018-09-11T18:18:26.508Z,5.50
2018-09-11T18:20:55.856Z,5.13
2018-09-11T18:23:24.920Z,4.07
2018-09-11T18:25:53.842Z,7.23
2018-09-11T18:28:23.002Z,5.57
2018-09-11T18:30:51.958Z,5.47
2018-09-11T18:33:20.989Z,5.30
2018-09-11T18:35:55.324Z,5.10
2018-09-11T18:38:24.306Z,4.70
2018-09-11T18:40:54.754Z,4.60
2018-09-11T18:43:23.919Z,4.37
2018-09-11T18:45:53.606Z,4.50
2018-09-11T18:48:22.519Z,4.90
2018-09-11T18:50:51.754Z,4.90
2018-09-11T18:53:26.840Z,5.10
2018-09-11T18:55:55.775Z,6.13
2018-09-11T18:58:25.225Z,6.17
2018-09-11T19:00:54.132Z,6.13
2018-09-11T19:03:23.065Z,5.17
2018-09-11T19:05:52.509Z,5.00
2018-09-11T19:08:21.800Z,5.60
2018-09-11T19:10:57.964Z,5.67
2018-09-11T19:13:32.131Z,7.13
2018-09-11T19:16:01.129Z,7.63
2018-09-11T19:18:30.096Z,6.53
2018-09-11T19:20:59.066Z,7.60
2018-09-11T19:23:27.985Z,5.97
2018-09-11T19:25:57.180Z,7.43
2018-09-11T19:28:26.069Z,7.53
2018-09-11T19:30:56.073Z,7.80
2018-09-11T19:33:25.417Z,8.30
2018-09-11T19:35:54.373Z,8.03
2018-09-11T19:38:23.259Z,7.77
2018-09-11T19:40:52.489Z,7.77
2018-09-11T19:43:21.268Z,7.60
2018-09-11T19:45:50.089Z,6.17
2018-09-11T19:48:25.664Z,6.33
2018-09-11T19:50:54.696Z,4.10
2018-09-11T19:53:23.608Z,4.03
2018-09-11T19:55:54.914Z,3.43
2018-09-11T19:58:23.717Z,3.53
2018-09-11T20:00:52.573Z,4.03
2018-09-11T20:03:21.869Z,3.90
2018-09-11T20:08:24.169Z,4.43
2018-09-11T20:10:54.004Z,4.70
2018-09-11T20:13:26.394Z,7.73
2018-09-11T20:15:55.330Z,7.77
2018-09-11T20:18:24.763Z,12.10
2018-09-11T20:20:53.601Z,8.40
2018-09-11T20:23:22.417Z,5.87
2018-09-11T20:25:56.906Z,4.87
2018-09-11T20:28:25.904Z,4.10
2018-09-11T20:30:54.861Z,5.20
2018-09-11T20:33:24.085Z,4.70
2018-09-11T20:35:52.880Z,4.60
2018-09-11T20:38:22.169Z,3.80
2018-09-11T20:40:51.348Z,4.33
2018-09-11T20:43:20.264Z,4.87
2018-09-11T20:45:49.251Z,5.97
2018-09-11T20:48:18.668Z,4.80
2018-09-11T20:50:47.512Z,5.47
2018-09-11T20:53:21.667Z,5.17
2018-09-11T20:55:51.101Z,5.47
2018-09-11T20:58:23.416Z,5.47
2018-09-11T21:00:52.366Z,4.90
2018-09-11T21:03:23.965Z,5.77
2018-09-11T21:05:52.935Z,6.27
2018-09-11T21:08:24.889Z,6.27
2018-09-11T21:10:53.686Z,4.27
2018-09-11T21:13:22.530Z,4.73
2018-09-11T21:15:53.180Z,5.17
2018-09-11T21:20:55.399Z,5.23
2018-09-11T21:23:31.565Z,6.73
2018-09-11T21:26:00.459Z,6.17
2018-09-11T21:28:33.290Z,6.30
2018-09-11T21:31:02.141Z,6.00
2018-09-11T21:33:31.009Z,6.40
2018-09-11T21:36:00.132Z,6.80
2018-09-11T21:38:34.545Z,6.13
2018-09-11T21:41:03.478Z,7.10
2018-09-11T21:43:36.261Z,6.57
2018-09-11T21:46:06.601Z,5.93
2018-09-11T21:48:35.399Z,6.13
2018-09-11T21:51:04.628Z,6.40
2018-09-11T21:53:33.479Z,7.00
2018-09-11T21:56:08.441Z,6.27
2018-09-11T21:58:37.615Z,5.73
2018-09-11T22:01:11.632Z,5.80
2018-09-11T22:03:40.590Z,5.97
2018-09-11T22:06:09.740Z,5.87
2018-09-11T22:08:46.077Z,6.43
2018-09-11T22:11:14.942Z,7.10
2018-09-11T22:13:43.897Z,6.73
2018-09-11T22:16:12.729Z,6.03
2018-09-11T22:18:42.166Z,6.10
2018-09-11T22:21:11.061Z,6.37
2018-09-11T22:23:40.111Z,6.20
2018-09-11T22:26:08.881Z,6.27
2018-09-11T22:28:37.965Z,5.93
2018-09-11T22:31:06.878Z,6.30
2018-09-11T22:33:35.810Z,6.40
2018-09-11T22:36:05.430Z,6.30
2018-09-11T22:41:09.855Z,7.23
2018-09-11T22:43:38.717Z,7.10
2018-09-11T22:46:07.681Z,16.20
2018-09-11T22:48:36.684Z,9.53
2018-09-11T22:51:11.159Z,6.90
2018-09-11T22:53:40.012Z,7.67
2018-09-11T22:56:08.931Z,6.50
2018-09-11T22:58:38.088Z,6.83
2018-09-11T23:01:06.925Z,7.27
2018-09-11T23:03:44.661Z,6.47
2018-09-11T23:06:13.819Z,7.20
2018-09-11T23:08:42.641Z,7.30
2018-09-11T23:11:11.493Z,5.33
2018-09-11T23:13:40.306Z,5.20
2018-09-11T23:16:09.403Z,4.80
2018-09-11T23:18:43.957Z,4.40
2018-09-11T23:21:12.778Z,4.57
2018-09-11T23:23:43.228Z,5.67
2018-09-11T23:26:12.039Z,4.70
2018-09-11T23:28:41.084Z,3.63
2018-09-11T23:31:09.873Z,3.80
2018-09-11T23:33:38.717Z,4.40
2018-09-11T23:36:07.581Z,4.17
2018-09-11T23:38:36.739Z,4.70
2018-09-11T23:41:05.625Z,4.40
2018-09-11T23:43:34.478Z,4.13
2018-09-11T23:46:04.612Z,3.63
2018-09-11T23:48:33.506Z,4.07
2018-09-11T23:51:06.265Z,3.30
2018-09-11T23:53:35.528Z,3.90
2018-09-11T23:56:05.065Z,3.83
2018-09-11T23:58:39.094Z,3.93
